createdAt,value
2022-10-13T00:09:49.858Z,24.70
2022-10-13T00:19:52.796Z,25.10
2022-10-13T00:29:55.974Z,25.60
2022-10-13T00:39:58.958Z,23.60
2022-10-13T00:50:03.062Z,24.70
2022-10-13T01:00:07.764Z,23.90
2022-10-13T01:10:11.087Z,23.90
2022-10-13T01:20:48.648Z,21.80
2022-10-13T01:31:16.323Z,22.30
2022-10-13T01:41:29.205Z,22.00
2022-10-13T01:51:34.204Z,21.10
2022-10-13T02:02:05.048Z,21.90
2022-10-13T02:12:17.191Z,21.90
2022-10-13T02:22:22.309Z,21.70
2022-10-13T02:32:26.106Z,23.90
2022-10-13T02:42:29.318Z,24.60
2022-10-13T02:52:35.333Z,25.10
2022-10-13T03:02:38.533Z,27.60
2022-10-13T03:12:41.651Z,28.60
2022-10-13T03:22:49.436Z,32.40
2022-10-13T03:32:53.349Z,32.70
2022-10-13T03:42:56.904Z,30.80
2022-10-13T03:53:00.451Z,30.10
2022-10-13T04:03:03.689Z,31.40
2022-10-13T04:13:07.063Z,29.00
2022-10-13T04:23:10.337Z,29.60
2022-10-13T04:33:17.070Z,26.20
2022-10-13T04:43:20.069Z,27.00
2022-10-13T04:53:26.658Z,26.10
2022-10-13T05:13:33.111Z,24.10
2022-10-13T05:23:36.375Z,25.40
2022-10-13T05:33:39.787Z,28.00
2022-10-13T05:43:43.177Z,27.40
2022-10-13T05:53:55.364Z,28.80
2022-10-13T06:04:06.350Z,27.10
2022-10-13T06:14:09.376Z,26.70
2022-10-13T06:24:12.394Z,26.60
2022-10-13T06:34:15.745Z,26.90
2022-10-13T06:44:20.465Z,25.60
2022-10-13T06:54:23.478Z,24.70
2022-10-13T07:04:28.121Z,22.60
2022-10-13T07:14:34.423Z,21.20
2022-10-13T07:24:37.496Z,20.40
2022-10-13T07:34:40.564Z,19.50
2022-10-13T07:44:43.823Z,16.10
2022-10-13T07:54:46.751Z,16.30
2022-10-13T08:04:50.106Z,11.90
2022-10-13T08:14:53.192Z,11.80
2022-10-13T08:24:56.313Z,11.00
2022-10-13T08:34:59.501Z,9.40
2022-10-13T08:45:39.302Z,9.40
2022-10-13T08:55:56.352Z,9.80
2022-10-13T09:06:32.315Z,7.90
2022-10-13T09:16:41.457Z,7.50
2022-10-13T09:26:50.236Z,8.00
2022-10-13T09:36:58.522Z,7.30
2022-10-13T09:47:04.151Z,6.30
2022-10-13T10:07:31.877Z,4.90
2022-10-13T10:28:10.487Z,4.30
2022-10-13T10:38:32.494Z,3.90
2022-10-13T10:48:39.028Z,3.50
2022-10-13T10:58:53.605Z,3.50
2022-10-13T11:08:58.343Z,3.70
2022-10-13T11:19:08.070Z,3.20
2022-10-13T11:29:20.030Z,3.80
2022-10-13T11:50:06.404Z,4.00
2022-10-13T12:00:17.376Z,3.80
2022-10-13T12:10:30.478Z,4.60
2022-10-13T12:20:33.568Z,4.20
2022-10-13T12:30:37.268Z,3.70
2022-10-13T12:40:43.790Z,4.80
2022-10-13T12:50:47.043Z,5.20
2022-10-13T13:01:26.007Z,5.70
2022-10-13T13:11:39.219Z,5.20
2022-10-13T13:21:45.553Z,5.50
2022-10-13T13:31:48.710Z,5.10
2022-10-13T13:41:51.930Z,5.10
2022-10-13T13:51:55.315Z,4.60
2022-10-13T14:01:58.849Z,3.80
2022-10-13T14:12:02.673Z,4.10
2022-10-13T14:22:19.974Z,4.20
2022-10-13T14:32:23.407Z,6.00
2022-10-13T14:42:26.610Z,4.80
2022-10-13T14:52:29.691Z,4.90
2022-10-13T15:02:33.233Z,5.70
2022-10-13T15:12:36.353Z,5.60
2022-10-13T15:22:39.428Z,5.60
2022-10-13T15:32:48.742Z,5.10
2022-10-13T15:42:52.899Z,5.30
2022-10-13T15:52:56.051Z,6.40
2022-10-13T16:02:59.253Z,7.10
2022-10-13T16:13:02.566Z,10.90
2022-10-13T16:23:05.647Z,11.80
2022-10-13T16:33:08.916Z,12.10
2022-10-13T16:43:11.904Z,9.40
2022-10-13T16:53:15.276Z,14.90
2022-10-13T17:03:18.600Z,18.60
2022-10-13T17:13:21.970Z,23.20
2022-10-13T17:23:26.586Z,18.20
2022-10-13T17:33:31.779Z,17.20
2022-10-13T17:43:37.145Z,18.20
2022-10-13T18:03:50.746Z,17.00
